createdAt,value
2022-08-17T00:00:14.681Z,100636.13
2022-08-17T00:05:38.558Z,100627.94
2022-08-17T00:10:43.926Z,100636.00
2022-08-17T00:15:46.487Z,100633.72
2022-08-17T00:20:48.744Z,100637.91
2022-08-17T00:25:53.022Z,100635.56
2022-08-17T00:30:55.300Z,100635.19
2022-08-17T00:35:59.345Z,100639.38
2022-08-17T00:41:06.997Z,100640.63
2022-08-17T00:46:12.809Z,100647.59
2022-08-17T00:51:23.260Z,100643.59
2022-08-17T00:56:32.064Z,100646.19
2022-08-17T01:01:34.058Z,100639.47
2022-08-17T01:06:36.339Z,100638.00
2022-08-17T01:11:40.383Z,100643.50
2022-08-17T01:16:42.288Z,100658.25
2022-08-17T01:21:49.531Z,100654.75
2022-08-17T01:26:53.154Z,100650.72
2022-08-17T01:32:01.862Z,100651.91
2022-08-17T01:37:03.969Z,100656.31
2022-08-17T01:42:13.048Z,100660.50
2022-08-17T01:47:15.898Z,100659.56
2022-08-17T01:52:18.595Z,100653.63
2022-08-17T01:57:21.662Z,100657.50
2022-08-17T02:02:31.366Z,100654.97
2022-08-17T02:07:56.015Z,100655.34
2022-08-17T02:12:57.469Z,100652.16
2022-08-17T02:17:59.445Z,100662.75
2022-08-17T02:23:03.580Z,100662.25
2022-08-17T02:28:10.174Z,100652.03
2022-08-17T02:33:12.298Z,100652.34
2022-08-17T02:38:14.609Z,100650.94
2022-08-17T02:43:18.153Z,100648.97
2022-08-17T02:48:30.732Z,100643.94
2022-08-17T02:53:35.920Z,100651.44
2022-08-17T02:58:39.649Z,100648.41
2022-08-17T03:03:42.043Z,100643.72
2022-08-17T03:08:44.062Z,100650.19
2022-08-17T03:13:47.639Z,100649.56
2022-08-17T03:18:49.776Z,100640.13
2022-08-17T03:23:54.306Z,100638.59
2022-08-17T03:28:58.133Z,100637.31
2022-08-17T03:34:00.119Z,100641.59
2022-08-17T03:39:02.154Z,100645.22
2022-08-17T03:44:05.768Z,100641.75
2022-08-17T03:49:09.213Z,100636.53
2022-08-17T03:54:12.148Z,100639.16
2022-08-17T03:59:21.231Z,100640.22
2022-08-17T04:04:28.071Z,100639.88
2022-08-17T04:09:29.879Z,100646.84
2022-08-17T04:14:34.458Z,100638.59
2022-08-17T04:19:36.389Z,100635.63
2022-08-17T04:24:38.589Z,100648.56
2022-08-17T04:29:50.073Z,100644.59
2022-08-17T04:34:57.837Z,100655.84
2022-08-17T04:40:03.921Z,100660.69
2022-08-17T04:45:08.727Z,100667.03
2022-08-17T04:50:10.765Z,100671.88
2022-08-17T04:55:13.120Z,100668.50
2022-08-17T05:00:16.868Z,100681.09
2022-08-17T05:05:19.955Z,100680.63
2022-08-17T05:10:24.264Z,100692.47
2022-08-17T05:15:33.139Z,100694.34
2022-08-17T05:20:39.809Z,100700.53
2022-08-17T05:25:47.458Z,100703.16
2022-08-17T05:30:51.510Z,100703.63
2022-08-17T05:35:57.319Z,100707.59
2022-08-17T05:41:01.863Z,100716.59
2022-08-17T05:46:11.059Z,100715.94
2022-08-17T05:51:27.965Z,100712.13
2022-08-17T05:56:49.599Z,100722.09
2022-08-17T06:02:03.013Z,100720.06
2022-08-17T06:07:10.056Z,100720.34
2022-08-17T06:12:34.500Z,100725.31
2022-08-17T06:17:38.567Z,100720.06
2022-08-17T06:22:45.005Z,100724.34
2022-08-17T06:27:53.707Z,100735.03
2022-08-17T06:33:03.029Z,100736.59
2022-08-17T06:38:17.286Z,100724.81
2022-08-17T06:43:51.068Z,100726.09
2022-08-17T06:49:05.575Z,100719.47
2022-08-17T06:54:15.584Z,100722.53
2022-08-17T06:59:22.353Z,100728.44
2022-08-17T07:04:30.174Z,100735.84
2022-08-17T07:09:36.162Z,100738.06
2022-08-17T07:14:43.062Z,100737.34
2022-08-17T07:19:49.353Z,100721.91
2022-08-17T07:24:53.887Z,100728.72
2022-08-17T07:30:03.735Z,100738.22
2022-08-17T07:35:18.051Z,100738.78
2022-08-17T07:40:29.452Z,100744.94
2022-08-17T07:45:32.376Z,100740.66
2022-08-17T07:50:35.811Z,100741.78
2022-08-17T07:55:39.343Z,100737.16
2022-08-17T08:00:41.539Z,100742.31
2022-08-17T08:05:54.363Z,100738.78
2022-08-17T08:11:06.978Z,100738.25
2022-08-17T08:16:23.265Z,100741.56
2022-08-17T08:21:49.161Z,100742.38
2022-08-17T08:26:59.505Z,100747.06
2022-08-17T08:32:11.797Z,100724.72
2022-08-17T08:37:33.688Z,100739.06
2022-08-17T08:42:45.738Z,100734.78
2022-08-17T08:48:57.034Z,100737.28
2022-08-17T08:53:42.762Z,100733.38
2022-08-17T08:58:51.381Z,100735.91
2022-08-17T09:04:24.839Z,100740.41
2022-08-17T09:09:39.093Z,100741.31
2022-08-17T09:14:51.015Z,100736.91
2022-08-17T09:19:59.730Z,100730.66
2022-08-17T09:25:09.191Z,100735.25
2022-08-17T09:30:11.830Z,100738.34
2022-08-17T09:35:16.836Z,100722.84
2022-08-17T09:40:24.665Z,100739.59
2022-08-17T09:45:33.925Z,100737.06
2022-08-17T09:51:04.929Z,100730.06
2022-08-17T09:56:30.270Z,100731.09
2022-08-17T10:01:37.721Z,100721.78
2022-08-17T10:06:51.176Z,100719.22
2022-08-17T10:12:01.497Z,100725.97
2022-08-17T10:17:12.013Z,100720.72
2022-08-17T10:22:34.812Z,100723.91
2022-08-17T10:27:43.113Z,100717.69
2022-08-17T10:32:49.992Z,100715.88
2022-08-17T10:38:17.710Z,100713.69
2022-08-17T10:43:33.612Z,100716.53
2022-08-17T10:48:37.657Z,100703.06
2022-08-17T10:53:53.669Z,100707.88
2022-08-17T10:58:58.447Z,100698.75
2022-08-17T11:04:19.044Z,100694.72
2022-08-17T11:09:34.315Z,100693.75
2022-08-17T11:14:49.878Z,100692.50
2022-08-17T11:20:07.646Z,100689.84
2022-08-17T11:25:14.922Z,100689.81
2022-08-17T11:30:41.710Z,100688.09
2022-08-17T11:35:51.412Z,100679.19
2022-08-17T11:41:17.543Z,100688.53
2022-08-17T11:46:31.279Z,100677.91
2022-08-17T11:52:30.315Z,100672.44
2022-08-17T11:58:25.393Z,100670.50
2022-08-17T12:03:54.491Z,100670.97
2022-08-17T12:09:05.496Z,100671.56
2022-08-17T12:14:10.758Z,100673.56
2022-08-17T12:19:20.383Z,100669.56
2022-08-17T12:24:36.283Z,100681.06
2022-08-17T12:29:42.900Z,100675.53
2022-08-17T12:34:47.614Z,100673.88
2022-08-17T12:39:57.153Z,100667.75
2022-08-17T12:44:59.511Z,100656.28
2022-08-17T12:50:29.014Z,100646.59
2022-08-17T12:55:36.308Z,100655.22
2022-08-17T13:00:40.248Z,100645.41
2022-08-17T13:05:56.089Z,100653.53
2022-08-17T13:11:00.431Z,100646.94
2022-08-17T13:16:05.906Z,100648.66
2022-08-17T13:21:24.569Z,100640.25
2022-08-17T13:26:32.381Z,100630.81
2022-08-17T13:31:51.800Z,100628.91
2022-08-17T13:37:18.066Z,100626.38
2022-08-17T13:42:34.382Z,100631.00
2022-08-17T13:48:08.126Z,100631.94
2022-08-17T13:53:23.442Z,100623.47
2022-08-17T13:58:27.466Z,100622.31
2022-08-17T14:03:29.233Z,100610.34
2022-08-17T14:08:32.410Z,100613.94
2022-08-17T14:13:34.199Z,100618.75
2022-08-17T14:18:57.092Z,100604.94
2022-08-17T14:24:00.410Z,100604.56
2022-08-17T14:29:02.163Z,100607.75
2022-08-17T14:34:03.958Z,100602.84
2022-08-17T14:39:07.604Z,100610.00
2022-08-17T14:44:09.752Z,100612.50
2022-08-17T14:49:13.440Z,100606.84
2022-08-17T14:54:33.693Z,100594.09
2022-08-17T14:59:36.282Z,100596.38
2022-08-17T15:04:41.872Z,100590.88
2022-08-17T15:09:48.407Z,100592.75
2022-08-17T15:14:50.286Z,100592.56
2022-08-17T15:19:52.043Z,100591.25
2022-08-17T15:24:55.718Z,100588.81
2022-08-17T15:29:57.669Z,100584.69
2022-08-17T15:35:01.725Z,100583.56
2022-08-17T15:40:06.681Z,100588.06
2022-08-17T15:45:11.003Z,100574.66
2022-08-17T15:50:13.010Z,100566.03
2022-08-17T15:55:18.702Z,100572.84
2022-08-17T16:00:22.679Z,100579.25
2022-08-17T16:05:25.261Z,100563.78
2022-08-17T16:10:35.644Z,100571.44
2022-08-17T16:15:37.823Z,100568.16
2022-08-17T16:20:39.597Z,100567.28
2022-08-17T16:25:53.830Z,100557.19
2022-08-17T16:30:56.130Z,100557.41
2022-08-17T16:35:58.252Z,100560.34
2022-08-17T16:41:02.420Z,100559.09
2022-08-17T16:46:04.402Z,100549.16
2022-08-17T16:51:07.015Z,100555.66
2022-08-17T16:56:10.132Z,100548.50
2022-08-17T17:01:12.708Z,100547.84
2022-08-17T17:06:18.690Z,100542.41
2022-08-17T17:11:29.020Z,100548.28
2022-08-17T17:16:37.005Z,100560.53
2022-08-17T17:21:46.754Z,100558.38
2022-08-17T17:27:08.290Z,100551.56
2022-08-17T17:32:17.707Z,100553.25
2022-08-17T17:37:24.565Z,100550.16
2022-08-17T17:42:30.926Z,100545.66
2022-08-17T17:47:33.142Z,100544.63
2022-08-17T17:52:44.645Z,100539.09
2022-08-17T17:57:57.634Z,100542.19
2022-08-17T18:03:19.229Z,100540.50
2022-08-17T18:08:38.340Z,100559.31
2022-08-17T18:13:54.935Z,100550.22
2022-08-17T18:18:56.695Z,100550.38
2022-08-17T18:24:00.781Z,100558.09
2022-08-17T18:29:15.143Z,100566.59
2022-08-17T18:34:43.708Z,100569.41
2022-08-17T18:39:41.703Z,100566.88
2022-08-17T18:44:49.607Z,100573.47
2022-08-17T18:49:56.490Z,100573.38
2022-08-17T18:55:06.132Z,100582.50
2022-08-17T19:00:15.335Z,100563.75
2022-08-17T19:05:29.366Z,100563.50
2022-08-17T19:10:46.464Z,100566.97
2022-08-17T19:16:14.443Z,100566.78
2022-08-17T19:21:21.592Z,100565.78
2022-08-17T19:26:54.199Z,100570.06
2022-08-17T19:31:52.669Z,100572.25
2022-08-17T19:37:00.885Z,100570.81
2022-08-17T19:42:11.401Z,100575.56
2022-08-17T19:47:43.782Z,100571.53
2022-08-17T19:52:55.138Z,100565.97
2022-08-17T19:58:05.789Z,100550.06
2022-08-17T20:03:16.823Z,100560.00
2022-08-17T20:08:25.796Z,100551.56
2022-08-17T20:13:34.259Z,100547.66
2022-08-17T20:18:49.660Z,100553.63
2022-08-17T20:23:53.798Z,100558.50
2022-08-17T20:29:19.682Z,100553.72
2022-08-17T20:34:46.207Z,100550.22
2022-08-17T20:40:19.578Z,100555.25
2022-08-17T20:46:13.693Z,100564.53
2022-08-17T20:51:23.298Z,100571.47
2022-08-17T20:56:55.438Z,100565.84
2022-08-17T21:02:18.202Z,100566.91
2022-08-17T21:07:29.120Z,100571.00
2022-08-17T21:12:43.414Z,100569.94
2022-08-17T21:17:50.382Z,100566.44
2022-08-17T21:23:11.881Z,100578.34
2022-08-17T21:28:30.070Z,100571.81
2022-08-17T21:33:38.389Z,100575.38
2022-08-17T21:38:56.996Z,100578.47
2022-08-17T21:44:05.648Z,100578.56
2022-08-17T21:49:13.964Z,100581.03
2022-08-17T21:54:29.106Z,100579.50
2022-08-17T21:59:33.779Z,100580.97
2022-08-17T22:04:38.946Z,100597.03
2022-08-17T22:09:44.356Z,100587.75
2022-08-17T22:14:58.339Z,100593.22
2022-08-17T22:20:06.010Z,100592.44
2022-08-17T22:25:20.578Z,100598.63
2022-08-17T22:30:32.428Z,100593.41
2022-08-17T22:35:37.358Z,100597.28
2022-08-17T22:40:41.109Z,100592.53
2022-08-17T22:45:46.054Z,100594.25
2022-08-17T22:50:49.725Z,100602.38
2022-08-17T22:55:55.500Z,100601.88
2022-08-17T23:01:22.596Z,100600.22
2022-08-17T23:06:25.939Z,100594.66
2022-08-17T23:11:36.688Z,100588.75
2022-08-17T23:16:51.646Z,100598.31
2022-08-17T23:21:54.722Z,100592.19
2022-08-17T23:26:57.953Z,100592.03
2022-08-17T23:32:01.139Z,100588.34
2022-08-17T23:37:03.193Z,100588.78
2022-08-17T23:42:10.706Z,100575.19
2022-08-17T23:47:12.479Z,100582.00
2022-08-17T23:52:16.369Z,100587.50
2022-08-17T23:57:33.864Z,100586.28
